Time;durP1;ratioP1;P1;durP2;ratioP2;P2;SDS_P1;SDS_P2;PMS_P1;PMS_P2;Temp;Humidity;BMP_temperature;BMP_pressure;BME280_temperature;BME280_humidity;BME280_pressure;Samples;Min_cycle;Max_cycle;Signal;HPM_P1;HPM_P2
2022/11/05 00:11:15;;;;;;;5.05;3.13;;;;;;;6.86;100.00;98174.25;4156601;28;20064;-73
2022/11/05 00:17:53;;;;;;;5.25;3.00;;;;;;;6.85;100.00;98180.91;4158180;28;20048;-73
2022/11/05 00:19:53;;;;;;;6.63;3.58;;;;;;;6.86;100.00;98183.28;4156701;28;20049;-73
2022/11/05 00:26:51;;;;;;;6.75;4.00;;;;;;;6.86;100.00;98188.78;4116066;28;20554;-73
2022/11/05 00:28:52;;;;;;;7.03;4.18;;;;;;;6.81;100.00;98186.34;4118616;28;20043;-73
2022/11/05 00:30:53;;;;;;;8.68;4.30;;;;;;;6.82;100.00;98198.13;4159045;28;20041;-73
2022/11/05 00:32:59;;;;;;;6.68;3.80;;;;;;;6.80;100.00;98194.97;4157746;28;20335;-73
2022/11/05 00:35:00;;;;;;;6.72;4.10;;;;;;;6.83;100.00;98192.28;4158413;28;20140;-73
2022/11/05 00:37:00;;;;;;;7.32;4.30;;;;;;;6.81;100.00;98194.59;4157484;28;20080;-73
2022/11/05 00:39:00;;;;;;;8.52;4.25;;;;;;;6.79;100.00;98198.88;4156711;28;20113;-73
2022/11/05 00:41:01;;;;;;;6.75;4.20;;;;;;;6.79;100.00;98205.16;4158731;28;20051;-73
2022/11/05 00:45:20;;;;;;;5.43;3.58;;;;;;;6.76;100.00;98209.41;4159551;28;20485;-73
2022/11/05 00:49:39;;;;;;;8.10;4.50;;;;;;;6.79;100.00;98210.66;4158343;28;20047;-73
2022/11/05 00:51:40;;;;;;;7.85;4.78;;;;;;;6.85;100.00;98219.41;4156752;28;20046;-73
2022/11/05 00:53:40;;;;;;;7.22;4.03;;;;;;;6.83;100.00;98214.28;4157290;28;20178;-73
2022/11/05 00:55:43;;;;;;;9.45;4.47;;;;;;;6.80;100.00;98223.25;4156287;28;20436;-73
2022/11/05 00:57:43;;;;;;;7.18;4.50;;;;;;;6.80;100.00;98227.97;4159147;28;20313;-73
2022/11/05 00:59:44;;;;;;;7.22;4.03;;;;;;;6.81;100.00;98226.81;4158749;28;20449;-73
2022/11/05 01:01:44;;;;;;;6.35;4.85;;;;;;;6.80;100.00;98228.75;4156119;28;20355;-73
2022/11/05 01:03:44;;;;;;;11.05;4.97;;;;;;;6.83;100.00;98221.72;4154203;28;20161;-73
2022/11/05 01:05:50;;;;;;;9.57;5.25;;;;;;;6.90;100.00;98222.69;4155056;28;20805;-73
2022/11/05 01:07:52;;;;;;;12.38;4.85;;;;;;;6.93;100.00;98232.16;4159107;28;20045;-73
2022/11/05 01:09:52;;;;;;;8.65;4.72;;;;;;;6.92;100.00;98225.88;4155017;28;20056;-73
2022/11/05 01:11:53;;;;;;;8.63;5.00;;;;;;;6.90;100.00;98219.13;4153869;28;20049;-73
2022/11/05 01:13:54;;;;;;;8.82;5.15;;;;;;;6.89;100.00;98225.81;4156528;28;20044;-73
2022/11/05 01:15:55;;;;;;;10.15;5.28;;;;;;;6.91;100.00;98234.47;4155751;28;20084;-73
2022/11/05 01:17:56;;;;;;;9.38;5.20;;;;;;;6.92;100.00;98241.56;4157534;28;20833;-73
2022/11/05 01:19:56;;;;;;;9.75;4.90;;;;;;;6.89;100.00;98243.09;4159431;28;20064;-73
2022/11/05 01:21:56;;;;;;;8.38;4.85;;;;;;;6.89;100.00;98240.34;4156541;28;20481;-73
2022/11/05 01:23:57;;;;;;;11.52;4.88;;;;;;;6.92;100.00;98245.13;4154763;28;20480;-73
2022/11/05 01:25:57;;;;;;;13.60;5.95;;;;;;;6.90;100.00;98246.63;4153972;28;20500;-73
2022/11/05 01:27:57;;;;;;;8.32;5.07;;;;;;;6.91;100.00;98240.78;4162037;28;20615;-73
2022/11/05 01:29:58;;;;;;;8.27;5.80;;;;;;;6.93;100.00;98245.91;4156887;28;20103;-73
2022/11/05 01:31:58;;;;;;;8.13;5.05;;;;;;;7.00;100.00;98254.31;4155478;28;20076;-73
2022/11/05 01:33:59;;;;;;;8.73;5.38;;;;;;;7.00;100.00;98259.81;4156676;28;20120;-73
2022/11/05 01:35:59;;;;;;;11.77;5.70;;;;;;;6.96;100.00;98246.00;4156974;28;20072;-73
2022/11/05 01:38:00;;;;;;;9.25;5.78;;;;;;;7.01;100.00;98258.66;4155548;28;20084;-73
2022/11/05 01:40:00;;;;;;;10.82;5.88;;;;;;;6.99;100.00;98258.22;4154600;28;20069;-73
2022/11/05 01:42:01;;;;;;;11.25;6.38;;;;;;;6.99;100.00;98260.97;4157334;28;20490;-73
2022/11/05 01:44:02;;;;;;;12.00;6.03;;;;;;;7.06;100.00;98258.41;4154306;28;20148;-73
2022/11/05 01:46:02;;;;;;;10.90;5.70;;;;;;;7.02;100.00;98258.31;4154650;28;20121;-73
2022/11/05 01:48:14;;;;;;;9.10;5.95;;;;;;;7.04;100.00;98266.22;4156237;28;20304;-73
2022/11/05 01:50:20;;;;;;;8.75;5.85;;;;;;;6.99;100.00;98267.28;4155533;28;20037;-73
2022/11/05 01:52:23;;;;;;;9.40;5.65;;;;;;;7.02;100.00;98263.00;4161258;28;20115;-73
2022/11/05 01:54:28;;;;;;;13.02;5.72;;;;;;;7.04;100.00;98260.72;4158702;28;20075;-73
2022/11/05 01:56:37;;;;;;;13.10;6.28;;;;;;;7.02;100.00;98274.81;4160634;28;20373;-73
2022/11/05 01:58:47;;;;;;;8.38;6.15;;;;;;;7.00;100.00;98271.63;4156548;28;20050;-73
2022/11/05 02:00:47;;;;;;;11.32;6.13;;;;;;;6.94;100.00;98267.56;4157443;28;20043;-73
2022/11/05 02:02:48;;;;;;;15.23;6.53;;;;;;;6.96;100.00;98265.25;4158075;28;20473;-73
2022/11/05 02:04:55;;;;;;;13.55;6.43;;;;;;;6.99;100.00;98281.03;4156180;28;20043;-73
2022/11/05 02:06:56;;;;;;;13.35;6.45;;;;;;;6.96;100.00;98262.50;4154161;28;20129;-73
2022/11/05 02:09:08;;;;;;;11.02;6.38;;;;;;;7.00;100.00;98268.06;4155022;28;20100;-73
2022/11/05 02:11:11;;;;;;;13.35;6.60;;;;;;;6.96;100.00;98264.47;4155885;28;20171;-73
2022/11/05 02:13:12;;;;;;;12.55;6.57;;;;;;;6.94;100.00;98255.75;4160189;28;20735;-73
2022/11/05 02:15:16;;;;;;;9.82;6.35;;;;;;;6.97;100.00;98260.56;4154255;28;20045;-73
2022/11/05 02:17:19;;;;;;;12.38;6.35;;;;;;;7.01;100.00;98266.91;4154442;28;20755;-73
2022/11/05 02:19:56;;;;;;;9.43;6.10;;;;;;;6.99;100.00;98269.25;4158448;28;20516;-73
2022/11/05 02:22:11;;;;;;;13.70;7.47;;;;;;;6.96;100.00;98267.22;4157757;28;20529;-73
2022/11/05 02:24:43;;;;;;;10.40;6.25;;;;;;;6.97;100.00;98266.06;4155039;28;20478;-73
2022/11/05 02:27:04;;;;;;;14.05;6.70;;;;;;;7.03;100.00;98275.59;4158716;28;20045;-73
2022/11/05 02:29:14;;;;;;;14.63;6.50;;;;;;;7.04;100.00;98274.47;4162417;28;20049;-73
2022/11/05 02:31:48;;;;;;;17.10;6.55;;;;;;;7.05;100.00;98276.06;4158473;28;20049;-73
2022/11/05 02:34:14;;;;;;;14.07;6.72;;;;;;;7.03;100.00;98276.44;4163100;28;20052;-73
2022/11/05 02:36:35;;;;;;;13.02;7.25;;;;;;;7.04;100.00;98274.47;4160131;28;20044;-73
2022/11/05 02:38:57;;;;;;;10.70;5.82;;;;;;;6.99;100.00;98292.03;4165102;28;20045;-73
2022/11/05 02:41:34;;;;;;;12.27;6.63;;;;;;;7.01;100.00;98288.94;4157102;28;20049;-73
2022/11/05 02:44:18;;;;;;;16.08;7.10;;;;;;;7.02;100.00;98293.25;4157858;28;20541;-73
2022/11/05 02:46:44;;;;;;;12.20;7.13;;;;;;;7.02;100.00;98298.75;4149555;28;20048;-73
2022/11/05 02:48:51;;;;;;;12.23;7.13;;;;;;;7.00;100.00;98298.34;4159719;28;20274;-73
2022/11/05 02:50:59;;;;;;;15.90;7.38;;;;;;;6.99;100.00;98294.00;4157859;28;20045;-73
2022/11/05 02:53:27;;;;;;;11.13;6.43;;;;;;;6.99;100.00;98286.53;4160296;28;20045;-73
2022/11/05 02:55:40;;;;;;;14.32;7.22;;;;;;;6.98;100.00;98295.16;4160741;28;20045;-73
2022/11/05 02:57:44;;;;;;;13.85;7.43;;;;;;;6.98;100.00;98298.69;4158006;28;20124;-73
2022/11/05 02:59:44;;;;;;;14.82;7.78;;;;;;;6.96;100.00;98302.97;4157509;28;20049;-73
2022/11/05 03:01:46;;;;;;;13.70;7.78;;;;;;;6.93;100.00;98293.47;4157306;28;20433;-73
2022/11/05 03:03:51;;;;;;;12.60;7.10;;;;;;;6.94;100.00;98295.06;4156817;28;20048;-73
2022/11/05 03:05:51;;;;;;;13.90;7.85;;;;;;;6.99;100.00;98302.25;4158233;28;20119;-73
2022/11/05 03:08:04;;;;;;;16.92;7.60;;;;;;;6.95;100.00;98304.94;4158198;28;20053;-73
2022/11/05 03:10:16;;;;;;;15.05;7.93;;;;;;;7.00;100.00;98304.63;4157223;28;20048;-73
2022/11/05 03:12:45;;;;;;;15.20;7.25;;;;;;;7.04;100.00;98307.47;4159817;28;20044;-73
2022/11/05 03:14:56;;;;;;;18.13;7.80;;;;;;;7.02;100.00;98301.53;4156552;28;20060;-73
2022/11/05 03:17:25;;;;;;;13.02;7.57;;;;;;;7.02;100.00;98309.78;4161745;28;20045;-73
2022/11/05 03:19:37;;;;;;;15.68;7.32;;;;;;;7.08;100.00;98300.09;4135965;28;20350;-73
2022/11/05 03:21:46;;;;;;;16.52;6.75;;;;;;;7.06;100.00;98316.16;4158669;28;20053;-73
2022/11/05 03:24:05;;;;;;;12.27;7.35;;;;;;;7.06;100.00;98318.91;4162150;28;20055;-73
2022/11/05 03:26:40;;;;;;;13.43;7.97;;;;;;;7.04;100.00;98316.53;4156230;28;20033;-73
2022/11/05 03:28:44;;;;;;;16.95;8.13;;;;;;;7.01;100.00;98319.19;4144351;28;20061;-73
2022/11/05 03:30:49;;;;;;;19.23;8.10;;;;;;;6.99;100.00;98316.78;4158517;28;20470;-73
2022/11/05 03:32:56;;;;;;;11.80;6.95;;;;;;;6.94;100.00;98327.25;4155457;28;20122;-73
2022/11/05 03:35:10;;;;;;;15.05;7.43;;;;;;;6.94;100.00;98332.75;4156898;28;20037;-73
2022/11/05 03:37:10;;;;;;;17.25;9.40;;;;;;;6.98;100.00;98333.66;4160078;28;21016;-73
2022/11/05 03:39:17;;;;;;;14.10;7.60;;;;;;;7.00;100.00;98339.59;4158012;28;20137;-73
2022/11/05 03:41:20;;;;;;;15.15;7.75;;;;;;;7.01;100.00;98339.22;4158424;28;20063;-73
2022/11/05 03:43:27;;;;;;;13.13;8.02;;;;;;;7.00;100.00;98342.34;4156696;28;20380;-73
2022/11/05 03:45:33;;;;;;;14.05;7.78;;;;;;;6.95;100.00;98340.69;4156795;28;20072;-73
2022/11/05 03:47:38;;;;;;;17.10;8.57;;;;;;;6.98;100.00;98350.16;4163080;28;20049;-73
2022/11/05 03:49:46;;;;;;;13.52;7.50;;;;;;;6.96;100.00;98349.72;4158857;28;20041;-73
2022/11/05 03:51:59;;;;;;;14.57;7.97;;;;;;;6.96;100.00;98356.03;4155711;28;20521;-73
2022/11/05 03:54:03;;;;;;;14.10;8.13;;;;;;;6.98;100.00;98361.16;4156760;28;20041;-73
2022/11/05 03:56:09;;;;;;;11.73;8.07;;;;;;;7.00;100.00;98361.59;4159437;28;20088;-73
2022/11/05 03:58:11;;;;;;;18.42;8.85;;;;;;;6.98;100.00;98361.97;4157331;28;20359;-73
2022/11/05 04:00:12;;;;;;;;;;;;;;;6.95;100.00;98362.69;4157613;28;20121;-73
2022/11/05 04:02:18;;;;;;;18.20;7.90;;;;;;;6.92;100.00;98362.59;4156174;28;19959;-73
2022/11/05 04:04:18;;;;;;;16.80;7.75;;;;;;;6.92;100.00;98366.13;4159132;28;20529;-73
2022/11/05 04:13:24;;;;;;;19.55;9.30;;;;;;;6.94;100.00;98352.03;4154948;28;20056;-73
2022/11/05 04:15:25;;;;;;;17.55;9.43;;;;;;;6.89;100.00;98366.06;4157845;28;20562;-73
2022/11/05 04:17:26;;;;;;;16.25;8.98;;;;;;;6.86;100.00;98364.81;4156659;28;20036;-73
2022/11/05 04:24:09;;;;;;;17.88;9.63;;;;;;;6.83;100.00;98371.03;4160254;28;20048;-73
2022/11/05 04:26:10;;;;;;;17.75;8.70;;;;;;;6.83;100.00;98373.78;4161823;28;20030;-73
2022/11/05 04:28:10;;;;;;;19.30;9.00;;;;;;;6.85;100.00;98378.91;4157737;28;20187;-73
2022/11/05 04:30:18;;;;;;;16.27;9.05;;;;;;;6.86;100.00;98384.06;4154859;28;20099;-73
2022/11/05 04:32:19;;;;;;;15.57;9.10;;;;;;;6.87;100.00;98387.59;4154921;28;20033;-73
2022/11/05 04:34:23;;;;;;;19.13;8.98;;;;;;;6.86;100.00;98389.56;4155811;28;20068;-73
2022/11/05 04:36:23;;;;;;;17.00;9.25;;;;;;;6.90;100.00;98389.66;4159674;28;20055;-73
2022/11/05 04:38:23;;;;;;;18.20;9.18;;;;;;;6.84;100.00;98391.88;4156447;28;20132;-73
2022/11/05 04:40:24;;;;;;;18.70;9.63;;;;;;;6.90;100.00;98397.91;4156180;28;20121;-73
2022/11/05 04:42:24;;;;;;;18.95;8.50;;;;;;;6.97;100.00;98403.59;4160807;28;20081;-73
2022/11/05 04:44:25;;;;;;;16.40;9.65;;;;;;;6.90;100.00;98397.91;4156179;28;20056;-73
2022/11/05 04:46:25;;;;;;;15.93;9.27;;;;;;;6.83;100.00;98401.28;4157282;28;20055;-73
2022/11/05 04:48:25;;;;;;;22.73;9.63;;;;;;;6.81;100.00;98406.34;4158062;28;20602;-73
2022/11/05 04:50:26;;;;;;;17.08;9.02;;;;;;;6.81;100.00;98408.28;4160963;28;20584;-73
2022/11/05 04:52:26;;;;;;;19.70;9.95;;;;;;;6.75;100.00;98402.25;4160076;28;20045;-73
2022/11/05 04:54:27;;;;;;;20.25;9.30;;;;;;;6.81;100.00;98416.53;4156245;28;20043;-73
2022/11/05 04:56:27;;;;;;;18.25;10.32;;;;;;;6.78;100.00;98411.72;4156221;28;20045;-73
2022/11/05 04:58:27;;;;;;;17.05;9.13;;;;;;;6.86;100.00;98417.06;4155552;28;20072;-73
2022/11/05 05:00:28;;;;;;;15.38;8.27;;;;;;;6.85;100.00;98409.97;4155877;28;20041;-73
2022/11/05 05:02:28;;;;;;;16.77;9.25;;;;;;;6.93;100.00;98416.44;4154557;28;20057;-73
2022/11/05 05:04:28;;;;;;;24.50;10.35;;;;;;;6.85;100.00;98420.16;4156309;28;20046;-73
2022/11/05 05:06:29;;;;;;;18.25;10.23;;;;;;;6.92;100.00;98423.09;4154897;28;20116;-73
2022/11/05 05:08:29;;;;;;;23.08;10.30;;;;;;;6.94;100.00;98413.31;4156107;28;20137;-73
2022/11/05 05:10:31;;;;;;;23.15;10.00;;;;;;;6.96;100.00;98421.25;4155021;28;20500;-73
2022/11/05 05:12:32;;;;;;;19.63;9.32;;;;;;;6.89;100.00;98423.81;4158798;28;20371;-73
2022/11/05 05:14:33;;;;;;;20.17;9.95;;;;;;;6.85;100.00;98414.66;4156639;28;20242;-73
2022/11/05 05:16:33;;;;;;;25.05;10.27;;;;;;;6.90;100.00;98414.41;4157402;28;20045;-73
2022/11/05 05:18:34;;;;;;;18.10;10.00;;;;;;;6.89;100.00;98421.88;4157591;28;20060;-73
2022/11/05 05:22:54;;;;;;;23.65;10.52;;;;;;;6.81;100.00;98433.03;4162134;28;20048;-73
2022/11/05 05:24:55;;;;;;;22.30;10.13;;;;;;;6.78;100.00;98428.22;4154140;28;20477;-73
2022/11/05 05:26:55;;;;;;;21.52;10.55;;;;;;;6.79;100.00;98435.34;4155810;28;20045;-73
2022/11/05 05:28:56;;;;;;;18.13;9.52;;;;;;;6.80;100.00;98434.19;4156172;28;20778;-73
2022/11/05 05:31:00;;;;;;;18.20;9.60;;;;;;;6.80;100.00;98442.44;4155546;28;20095;-73
2022/11/05 05:33:02;;;;;;;18.92;10.32;;;;;;;6.73;100.00;98438.34;4153519;28;20612;-73
2022/11/05 05:35:03;;;;;;;17.38;10.68;;;;;;;6.78;100.00;98445.53;4156369;28;20061;-73
2022/11/05 05:37:03;;;;;;;22.27;10.45;;;;;;;6.74;100.00;98450.16;4156102;28;20423;-73
2022/11/05 05:39:09;;;;;;;18.15;10.10;;;;;;;6.73;100.00;98449.34;4155413;28;20061;-73
2022/11/05 05:41:09;;;;;;;20.73;10.77;;;;;;;6.72;100.00;98450.50;4156770;28;20052;-73
2022/11/05 05:43:10;;;;;;;19.17;9.80;;;;;;;6.72;100.00;98457.97;4156234;28;20038;-73
2022/11/05 05:45:11;;;;;;;20.20;10.38;;;;;;;6.70;100.00;98446.50;4156759;28;20064;-73
2022/11/05 05:47:14;;;;;;;20.75;10.13;;;;;;;6.70;100.00;98452.81;4155804;28;20128;-73
2022/11/05 05:49:15;;;;;;;22.33;9.50;;;;;;;6.73;100.00;98454.84;4158430;28;20065;-73
2022/11/05 05:51:15;;;;;;;18.77;10.18;;;;;;;6.73;100.00;98456.81;4156609;28;20107;-73
2022/11/05 05:53:16;;;;;;;22.02;10.05;;;;;;;6.73;100.00;98465.06;4155111;28;20393;-73
2022/11/05 05:55:16;;;;;;;19.67;10.52;;;;;;;6.69;100.00;98459.44;4156243;28;20041;-73
2022/11/05 05:57:16;;;;;;;22.95;10.68;;;;;;;6.67;100.00;98455.47;4156079;28;20053;-73
2022/11/05 05:59:17;;;;;;;20.63;11.27;;;;;;;6.67;100.00;98459.00;4155129;28;20124;-73
2022/11/05 06:01:18;;;;;;;26.23;11.45;;;;;;;6.65;100.00;98450.31;4155512;28;20045;-73
2022/11/05 06:03:18;;;;;;;19.52;10.60;;;;;;;6.65;100.00;98453.06;4154884;28;20482;-73
2022/11/05 06:05:18;;;;;;;21.17;11.50;;;;;;;6.72;100.00;98455.22;4155294;28;20037;-73
2022/11/05 06:07:18;;;;;;;22.00;11.60;;;;;;;6.67;100.00;98448.00;4156945;28;20308;-73
2022/11/05 06:09:19;;;;;;;22.42;11.40;;;;;;;6.76;100.00;98454.13;4155916;28;20375;-73
2022/11/05 06:11:19;;;;;;;21.08;10.38;;;;;;;6.81;100.00;98460.53;4154449;28;20441;-73
2022/11/05 06:13:19;;;;;;;30.67;12.50;;;;;;;6.75;100.00;98460.00;4154279;28;20532;-73
2022/11/05 06:15:20;;;;;;;23.02;10.50;;;;;;;6.70;100.00;98458.31;4160831;28;20462;-73
2022/11/05 06:17:20;;;;;;;23.08;11.27;;;;;;;6.70;100.00;98465.75;4156297;28;20042;-73
2022/11/05 06:19:20;;;;;;;25.75;11.85;;;;;;;6.70;100.00;98469.31;4156307;28;20092;-73
2022/11/05 06:21:21;;;;;;;21.45;10.57;;;;;;;6.66;100.00;98471.16;4155564;28;20053;-73
2022/11/05 06:23:21;;;;;;;25.85;12.82;;;;;;;6.70;100.00;98477.56;4154921;28;20037;-73
2022/11/05 06:25:22;;;;;;;22.67;11.30;;;;;;;6.73;100.00;98476.84;4154586;28;20200;-73
2022/11/05 06:27:22;;;;;;;25.83;13.00;;;;;;;6.72;100.00;98482.72;4160533;28;20041;-73
2022/11/05 06:29:23;;;;;;;24.35;12.65;;;;;;;6.72;100.00;98482.72;4156793;28;20028;-73
2022/11/05 06:31:23;;;;;;;26.30;13.30;;;;;;;6.70;100.00;98487.72;4154468;28;20076;-73
2022/11/05 06:33:25;;;;;;;28.20;11.68;;;;;;;6.67;100.00;98493.94;4153841;28;20053;-73
2022/11/05 06:35:25;;;;;;;24.77;12.48;;;;;;;6.68;100.00;98490.03;4157374;28;20497;-73
2022/11/05 06:37:26;;;;;;;31.42;13.35;;;;;;;6.65;100.00;98490.75;4155622;28;20056;-73
2022/11/05 06:39:26;;;;;;;24.17;11.57;;;;;;;6.67;100.00;98494.75;4155955;28;20405;-73
2022/11/05 06:41:27;;;;;;;22.10;11.57;;;;;;;6.71;100.00;98508.59;4155424;28;20041;-73
2022/11/05 06:43:27;;;;;;;22.73;11.23;;;;;;;6.67;100.00;98504.94;4152261;28;20041;-73
2022/11/05 06:45:28;;;;;;;19.42;11.32;;;;;;;6.69;100.00;98506.19;4153707;28;20048;-73
2022/11/05 06:47:28;;;;;;;23.35;11.70;;;;;;;6.68;100.00;98512.03;4155026;28;20659;-73
2022/11/05 06:49:29;;;;;;;19.33;10.18;;;;;;;6.68;100.00;98510.09;4155809;28;20128;-73
2022/11/05 06:51:29;;;;;;;21.55;11.35;;;;;;;6.71;100.00;98517.66;4153783;28;20053;-73
2022/11/05 06:53:29;;;;;;;23.63;13.18;;;;;;;6.73;100.00;98525.53;4157061;28;20080;-73
2022/11/05 06:55:30;;;;;;;25.75;12.90;;;;;;;6.73;100.00;98523.59;4097192;28;20037;-73
2022/11/05 06:57:31;;;;;;;26.73;13.77;;;;;;;6.74;100.00;98525.19;4159205;28;20253;-73
2022/11/05 06:59:31;;;;;;;24.60;12.70;;;;;;;6.73;100.00;98526.34;4156651;28;20089;-73
2022/11/05 07:01:31;;;;;;;22.45;12.27;;;;;;;6.86;100.00;98540.81;4157577;28;20124;-73
2022/11/05 07:03:32;;;;;;;24.58;11.45;;;;;;;6.85;100.00;98547.47;4157328;28;20120;-73
2022/11/05 07:05:35;;;;;;;23.08;11.65;;;;;;;6.87;100.00;98542.44;4158102;28;20243;-73
2022/11/05 07:07:37;;;;;;;22.52;11.95;;;;;;;6.87;100.00;98547.94;4159663;28;20466;-73
2022/11/05 07:09:39;;;;;;;21.38;11.55;;;;;;;6.88;100.00;98549.53;4159353;28;20161;-73
2022/11/05 07:11:39;;;;;;;21.25;11.35;;;;;;;6.91;100.00;98548.03;4160272;28;20060;-73
2022/11/05 07:13:40;;;;;;;22.95;11.95;;;;;;;6.91;100.00;98559.81;4160747;28;20425;-73
2022/11/05 07:15:40;;;;;;;25.13;11.70;;;;;;;6.92;100.00;98558.66;4160082;28;20060;-73
2022/11/05 07:17:40;;;;;;;20.45;10.82;;;;;;;6.90;100.00;98557.44;4160377;28;20190;-73
2022/11/05 07:19:41;;;;;;;25.42;11.93;;;;;;;6.91;100.00;98559.81;4158710;28;20493;-73
2022/11/05 07:21:41;;;;;;;24.30;11.45;;;;;;;6.92;100.00;98561.41;4158554;28;20045;-73
2022/11/05 07:23:41;;;;;;;20.65;11.35;;;;;;;6.91;100.00;98557.06;4159528;28;20041;-73
2022/11/05 07:25:42;;;;;;;24.42;12.02;;;;;;;6.91;100.00;98565.31;4160747;28;20131;-73
2022/11/05 07:27:43;;;;;;;23.17;11.25;;;;;;;6.97;100.00;98571.38;4158593;28;20045;-73
2022/11/05 07:29:43;;;;;;;19.70;12.18;;;;;;;6.96;100.00;98564.28;4157857;28;20054;-73
2022/11/05 07:31:45;;;;;;;24.02;11.90;;;;;;;7.03;100.00;98581.78;4157354;28;20761;-73
2022/11/05 07:33:46;;;;;;;25.52;12.30;;;;;;;7.05;100.00;98578.66;4160442;28;20382;-73
2022/11/05 07:35:46;;;;;;;23.33;11.75;;;;;;;7.03;100.00;98575.44;4162215;28;20047;-73
2022/11/05 07:37:52;;;;;;;25.63;11.82;;;;;;;7.06;100.00;98583.03;4160592;28;20040;-73
2022/11/05 07:39:53;;;;;;;22.85;11.10;;;;;;;7.14;100.00;98584.81;4156934;28;20072;-73
2022/11/05 07:41:54;;;;;;;20.35;11.75;;;;;;;7.19;100.00;98586.50;4157340;28;20092;-73
2022/11/05 07:43:54;;;;;;;19.92;10.02;;;;;;;7.16;100.00;98590.75;4157180;28;20065;-73
2022/11/05 07:45:54;;;;;;;25.15;11.73;;;;;;;7.20;100.00;98593.59;4159816;28;20073;-73
2022/11/05 07:48:02;;;;;;;22.35;10.65;;;;;;;7.29;100.00;98595.03;4158455;28;20133;-73
2022/11/05 07:50:03;;;;;;;20.77;10.15;;;;;;;7.27;100.00;98593.78;4158311;28;20389;-73
2022/11/05 07:52:04;;;;;;;19.83;10.50;;;;;;;7.29;100.00;98597.00;4158563;28;20063;-73
2022/11/05 07:54:04;;;;;;;20.48;10.77;;;;;;;7.33;100.00;98592.38;4156754;28;20109;-73
2022/11/05 07:56:05;;;;;;;19.60;11.20;;;;;;;7.32;100.00;98591.56;4159072;28;20119;-73
2022/11/05 07:58:05;;;;;;;22.17;10.35;;;;;;;7.40;100.00;98598.06;4158996;28;20564;-73
2022/11/05 08:00:06;;;;;;;22.85;10.73;;;;;;;7.39;100.00;98596.47;4158958;28;20021;-73
2022/11/05 08:02:09;;;;;;;19.10;11.57;;;;;;;7.40;100.00;98598.06;4162938;28;20384;-73
2022/11/05 08:04:09;;;;;;;23.98;12.43;;;;;;;7.41;100.00;98598.88;4158100;28;20040;-73
2022/11/05 08:06:09;;;;;;;20.35;10.80;;;;;;;7.44;100.00;98601.69;4160129;28;20417;-73
2022/11/05 08:08:12;;;;;;;24.27;12.32;;;;;;;7.47;100.00;98613.97;4160908;28;20029;-73
2022/11/05 08:10:12;;;;;;;;;;;;;;;7.46;100.00;98615.13;4157324;28;20029;-73
2022/11/05 08:12:13;;;;;;;21.17;10.45;;;;;;;7.48;100.00;98619.13;4159111;28;19917;-73
2022/11/05 08:14:13;;;;;;;21.80;10.90;;;;;;;7.54;100.00;98619.66;4156853;28;20171;-73
2022/11/05 08:16:14;;;;;;;22.88;11.15;;;;;;;7.55;100.00;98630.31;4159975;28;20580;-73
2022/11/05 08:18:16;;;;;;;28.75;13.82;;;;;;;7.57;100.00;98630.75;4158623;28;20091;-73
2022/11/05 08:20:16;;;;;;;32.33;11.82;;;;;;;7.56;100.00;98640.19;4156618;28;20308;-73
2022/11/05 08:22:17;;;;;;;24.65;12.23;;;;;;;7.52;100.00;98635.72;4160693;28;20060;-73
2022/11/05 08:24:17;;;;;;;26.40;12.73;;;;;;;7.59;100.00;98644.16;4155320;28;20052;-73
2022/11/05 08:26:18;;;;;;;20.02;9.95;;;;;;;7.60;100.00;98640.25;4155860;28;20033;-73
2022/11/05 08:28:20;;;;;;;19.92;10.70;;;;;;;7.58;100.00;98632.34;4157331;28;20022;-73
2022/11/05 08:30:20;;;;;;;20.80;10.73;;;;;;;7.56;100.00;98640.19;4156236;28;20040;-73
2022/11/05 08:32:21;;;;;;;19.00;10.50;;;;;;;7.54;100.00;98634.22;4158626;28;20052;-73
2022/11/05 08:34:21;;;;;;;30.42;15.18;;;;;;;7.54;100.00;98647.19;4159290;28;20429;-73
2022/11/05 08:36:21;;;;;;;23.60;13.82;;;;;;;7.58;100.00;98646.13;4161207;28;20686;-73
2022/11/05 08:38:22;;;;;;;23.38;12.25;;;;;;;7.61;100.00;98641.84;4160360;28;20505;-73
2022/11/05 08:40:22;;;;;;;21.92;10.57;;;;;;;7.69;100.00;98648.34;4158384;28;20409;-73
2022/11/05 08:42:22;;;;;;;20.02;10.27;;;;;;;7.79;100.00;98643.13;4159169;28;20107;-73
2022/11/05 08:44:23;;;;;;;18.20;9.38;;;;;;;7.94;100.00;98648.97;4157938;28;20047;-73
2022/11/05 08:46:23;;;;;;;20.25;9.20;;;;;;;7.96;100.00;98644.72;4156848;28;20743;-73
2022/11/05 08:48:23;;;;;;;18.27;9.82;;;;;;;8.06;100.00;98644.16;4158040;28;20072;-73
2022/11/05 08:50:24;;;;;;;23.38;10.50;;;;;;;8.05;100.00;98647.28;4157424;28;20496;-73
2022/11/05 08:52:24;;;;;;;20.13;10.43;;;;;;;8.10;100.00;98639.53;4156190;28;20044;-73
2022/11/05 08:54:24;;;;;;;19.75;9.10;;;;;;;8.14;100.00;98656.16;4156586;28;20076;-73
2022/11/05 08:56:25;;;;;;;17.45;8.35;;;;;;;8.11;100.00;98641.16;4156388;28;20638;-73
2022/11/05 08:58:25;;;;;;;19.65;9.32;;;;;;;8.28;100.00;98648.25;4154699;28;20152;-73
2022/11/05 09:00:28;;;;;;;16.48;8.75;;;;;;;8.44;100.00;98651.78;4154204;28;20055;-73
2022/11/05 09:02:29;;;;;;;15.77;8.20;;;;;;;8.50;100.00;98657.81;4154152;28;20041;-73
2022/11/05 09:04:29;;;;;;;17.90;7.80;;;;;;;8.59;99.37;98660.38;4155752;28;20336;-73
2022/11/05 09:06:29;;;;;;;16.08;7.85;;;;;;;8.64;99.62;98652.63;4153613;28;20104;-73
2022/11/05 09:08:30;;;;;;;15.27;7.03;;;;;;;8.63;98.79;98666.78;4160448;28;20073;-73
2022/11/05 09:10:30;;;;;;;15.70;7.32;;;;;;;8.63;99.16;98659.28;4155244;28;20044;-73
2022/11/05 09:12:30;;;;;;;12.57;7.00;;;;;;;8.70;98.55;98667.72;4155149;28;20075;-73
2022/11/05 09:14:31;;;;;;;11.02;6.13;;;;;;;8.67;97.29;98679.47;4155548;28;20044;-73
2022/11/05 09:16:33;;;;;;;14.88;6.75;;;;;;;8.60;97.12;98673.00;4156155;28;20296;-73
2022/11/05 09:18:33;;;;;;;11.65;5.95;;;;;;;8.62;96.47;98678.97;4158943;28;20125;-73
2022/11/05 09:20:35;;;;;;;15.63;7.18;;;;;;;8.59;97.59;98683.22;4154096;28;20077;-73
2022/11/05 09:22:35;;;;;;;10.25;5.22;;;;;;;8.62;95.76;98681.72;4155551;28;20076;-73
2022/11/05 09:24:36;;;;;;;13.32;5.00;;;;;;;8.66;94.91;98688.91;4155462;28;20268;-73
2022/11/05 09:26:36;;;;;;;11.45;4.40;;;;;;;8.64;93.70;98682.97;4155773;28;20052;-73
2022/11/05 09:28:37;;;;;;;14.10;4.97;;;;;;;8.60;93.93;98682.06;4156584;28;20128;-73
2022/11/05 09:30:39;;;;;;;8.60;4.70;;;;;;;8.66;93.78;98680.63;4155898;28;20132;-73
2022/11/05 09:32:40;;;;;;;12.90;5.22;;;;;;;8.60;93.32;98690.34;4154752;28;20095;-73
2022/11/05 09:34:43;;;;;;;11.48;4.35;;;;;;;8.67;93.38;98689.69;4154950;28;20558;-73
2022/11/05 09:36:43;;;;;;;;;;;;;;;8.68;92.12;98691.28;4155598;28;20041;-73
2022/11/05 09:38:43;;;;;;;11.55;4.75;;;;;;;8.66;92.90;98688.09;4155403;28;19917;-73
2022/11/05 09:40:56;;;;;;;7.82;4.53;;;;;;;8.69;93.29;98699.25;4156908;28;20041;-73
2022/11/05 09:42:57;;;;;;;9.02;4.57;;;;;;;8.68;92.96;98697.63;4154363;28;20126;-73
2022/11/05 09:45:13;;;;;;;10.77;4.97;;;;;;;8.70;93.81;98702.78;4156235;28;20053;-73
2022/11/05 09:47:24;;;;;;;7.75;4.75;;;;;;;8.58;93.64;98706.44;4154851;28;20041;-73
2022/11/05 09:49:30;;;;;;;10.88;4.68;;;;;;;8.66;93.03;98702.69;4160084;28;20044;-73
2022/11/05 09:51:31;;;;;;;14.32;5.22;;;;;;;8.70;92.69;98703.59;4155809;28;20052;-73
2022/11/05 09:53:37;;;;;;;12.77;7.15;;;;;;;8.76;92.20;98704.09;4155482;28;20702;-73
2022/11/05 09:55:47;;;;;;;12.88;5.80;;;;;;;8.76;92.58;98708.81;4154328;28;20080;-73
2022/11/05 09:57:53;;;;;;;13.07;5.95;;;;;;;8.77;93.50;98708.47;4155439;28;20041;-73
2022/11/05 10:00:00;;;;;;;12.93;5.95;;;;;;;8.82;93.52;98710.94;4154695;28;20037;-73
2022/11/05 10:02:15;;;;;;;9.35;5.40;;;;;;;8.90;91.50;98707.16;4154590;28;20046;-73
2022/11/05 10:04:24;;;;;;;9.45;4.75;;;;;;;9.03;91.41;98712.56;4154422;28;20416;-73
2022/11/05 10:06:26;;;;;;;10.85;5.78;;;;;;;9.13;90.44;98715.53;4157603;28;20049;-73
2022/11/05 10:08:57;;;;;;;11.40;5.65;;;;;;;9.20;90.71;98712.94;4156047;28;20049;-73
2022/11/05 10:11:12;;;;;;;19.63;10.68;;;;;;;9.27;90.58;98720.56;4155233;28;20443;-73
2022/11/05 10:13:41;;;;;;;9.02;6.00;;;;;;;9.25;88.08;98718.16;4155452;28;20135;-73